Time;durP1;ratioP1;P1;durP2;ratioP2;P2;SDS_P1;SDS_P2;PMS_P1;PMS_P2;Temp;Humidity;BMP_temperature;BMP_pressure;BME280_temperature;BME280_humidity;BME280_pressure;Samples;Min_cycle;Max_cycle;Signal;HPM_P1;HPM_P2
2023/04/29 00:02:31;;;;;;;7.28;4.80;;;;;;;17.40;52.67;100624.94;4967909;28;96937;-70
2023/04/29 00:04:57;;;;;;;7.35;5.05;;;;;;;17.31;52.70;100625.56;4967903;28;96827;-71
2023/04/29 00:07:24;;;;;;;9.50;5.38;;;;;;;17.54;52.14;100615.06;4962082;28;99038;-70
2023/04/29 00:09:50;;;;;;;9.57;5.22;;;;;;;17.42;52.43;100604.34;4965383;28;99081;-70
2023/04/29 00:12:17;;;;;;;10.07;5.38;;;;;;;17.65;51.91;100606.38;4969502;28;97689;-70
2023/04/29 00:14:43;;;;;;;8.25;5.53;;;;;;;17.45;52.27;100593.47;4974074;28;96780;-70
2023/04/29 00:17:10;;;;;;;8.20;5.32;;;;;;;17.37;52.50;100593.09;4974045;28;98967;-70
2023/04/29 00:19:37;;;;;;;8.75;5.80;;;;;;;17.34;52.66;100598.63;4968910;28;98731;-70
2023/04/29 00:22:04;;;;;;;7.95;5.13;;;;;;;17.19;53.03;100597.84;4969502;28;99170;-70
2023/04/29 00:24:30;;;;;;;12.07;5.53;;;;;;;17.21;53.51;100603.06;4967596;28;97108;-70
2023/04/29 00:26:57;;;;;;;7.93;5.63;;;;;;;17.44;52.45;100595.28;4964769;28;99325;-70
2023/04/29 00:29:23;;;;;;;7.55;4.78;;;;;;;17.26;52.81;100593.81;4963055;28;98881;-70
2023/04/29 00:31:50;;;;;;;12.68;5.70;;;;;;;17.08;53.49;100592.31;4966225;28;97339;-70
2023/04/29 00:34:16;;;;;;;9.02;5.60;;;;;;;17.05;53.54;100598.75;4969880;28;98243;-70
2023/04/29 00:36:44;;;;;;;10.55;5.70;;;;;;;17.17;53.39;100590.88;4963487;28;98864;-71
2023/04/29 00:39:10;;;;;;;10.82;5.80;;;;;;;17.33;52.80;100594.25;4969443;28;99048;-71
2023/04/29 00:41:37;;;;;;;11.50;5.78;;;;;;;17.20;53.29;100593.38;4959021;28;97447;-71
2023/04/29 00:44:04;;;;;;;7.53;5.22;;;;;;;17.14;53.59;100600.78;4969193;28;96915;-71
2023/04/29 00:46:32;;;;;;;7.22;5.50;;;;;;;17.13;53.67;100600.91;4969913;28;99719;-70
2023/04/29 00:48:59;;;;;;;9.18;5.15;;;;;;;17.18;53.35;100596.13;4968142;28;99656;-70
2023/04/29 00:51:27;;;;;;;10.18;5.93;;;;;;;17.25;53.17;100601.94;4965758;28;96808;-69
2023/04/29 00:53:54;;;;;;;9.90;5.55;;;;;;;17.40;52.88;100606.25;4969890;28;99576;-70
2023/04/29 00:56:21;;;;;;;8.00;5.45;;;;;;;17.17;53.62;100605.09;4966485;28;99423;-70
2023/04/29 00:58:50;;;;;;;8.98;5.65;;;;;;;17.23;53.46;100603.81;4968569;28;100233;-71
2023/04/29 01:01:17;;;;;;;11.73;5.70;;;;;;;17.21;53.53;100608.41;4968784;28;96755;-70
2023/04/29 01:03:43;;;;;;;7.15;5.50;;;;;;;17.27;53.39;100600.00;4960123;28;96840;-69
2023/04/29 01:06:22;;;;;;;8.25;5.65;;;;;;;17.09;53.84;100581.56;4970433;28;100952;-69
2023/04/29 01:08:57;;;;;;;9.02;5.55;;;;;;;16.97;54.48;100577.00;4963357;28;98870;-69
2023/04/29 01:11:32;;;;;;;10.43;5.80;;;;;;;16.97;54.88;100563.66;4965545;28;96823;-69
2023/04/29 01:14:00;;;;;;;8.82;6.25;;;;;;;16.84;56.42;100560.06;4966088;28;96894;-69
2023/04/29 01:16:34;;;;;;;11.40;7.07;;;;;;;16.59;58.19;100583.91;4968296;28;101988;-70
2023/04/29 01:19:06;;;;;;;10.63;6.47;;;;;;;16.64;59.51;100590.69;4966868;28;98826;-69
2023/04/29 01:21:33;;;;;;;10.52;6.95;;;;;;;16.83;59.51;100592.19;4965322;28;97100;-71
2023/04/29 01:24:01;;;;;;;14.07;7.35;;;;;;;17.03;59.53;100592.63;4966802;28;100850;-71
2023/04/29 01:26:31;;;;;;;17.92;6.32;;;;;;;17.11;59.45;100590.34;4970732;28;101732;-70
2023/04/29 01:29:10;;;;;;;14.45;7.03;;;;;;;17.13;59.85;100601.75;4967665;28;101576;-70
2023/04/29 01:31:41;;;;;;;12.45;7.07;;;;;;;16.54;61.85;100604.69;4966214;28;98211;-69
2023/04/29 01:34:10;;;;;;;14.13;7.07;;;;;;;16.97;60.29;100594.84;4965115;28;96990;-70
2023/04/29 01:36:47;;;;;;;12.27;6.95;;;;;;;17.23;59.47;100582.47;4968124;28;98963;-70
2023/04/29 01:39:20;;;;;;;14.07;8.90;;;;;;;17.23;59.96;100577.13;4962733;28;99179;-70
2023/04/29 01:41:54;;;;;;;13.80;7.80;;;;;;;17.34;60.01;100583.47;4962860;28;97159;-70
2023/04/29 01:44:24;;;;;;;10.10;7.05;;;;;;;17.26;59.68;100582.28;4968930;28;96866;-70
2023/04/29 01:46:52;;;;;;;13.63;7.80;;;;;;;16.93;60.83;100575.50;4969198;28;98986;-69
2023/04/29 01:49:20;;;;;;;9.00;7.50;;;;;;;16.65;61.91;100573.75;4967102;28;99161;-71
2023/04/29 01:51:46;;;;;;;13.45;7.80;;;;;;;16.74;61.98;100582.94;4968915;28;96742;-70
2023/04/29 01:54:14;;;;;;;12.43;8.40;;;;;;;16.48;62.94;100579.22;4967616;28;96955;-70
2023/04/29 01:56:41;;;;;;;12.02;7.95;;;;;;;16.52;62.84;100583.44;4967042;28;99312;-70
2023/04/29 01:59:07;;;;;;;11.15;8.15;;;;;;;16.66;62.18;100578.13;4966278;28;99317;-71
2023/04/29 02:01:34;;;;;;;12.15;8.07;;;;;;;16.65;62.95;100580.88;4967776;28;97050;-70
2023/04/29 02:04:00;;;;;;;12.63;8.68;;;;;;;16.50;63.11;100574.66;4970439;28;98966;-70
2023/04/29 02:06:27;;;;;;;11.30;8.23;;;;;;;16.62;62.98;100578.41;4966416;28;100004;-71
2023/04/29 02:08:53;;;;;;;11.90;8.35;;;;;;;16.52;63.46;100578.09;4970547;28;98864;-71
2023/04/29 02:11:21;;;;;;;12.90;8.40;;;;;;;16.31;64.08;100580.28;4967975;28;98035;-71
2023/04/29 02:13:47;;;;;;;14.63;8.40;;;;;;;16.52;63.39;100571.91;4960807;28;97021;-70
2023/04/29 02:16:15;;;;;;;13.95;10.02;;;;;;;16.55;63.42;100575.22;4970348;28;98949;-70
2023/04/29 02:18:42;;;;;;;12.63;8.90;;;;;;;16.55;63.70;100577.03;4968686;28;98823;-70
2023/04/29 02:21:09;;;;;;;11.27;8.65;;;;;;;16.65;63.23;100571.06;4969799;28;96993;-70
2023/04/29 02:23:36;;;;;;;11.65;9.30;;;;;;;16.67;62.95;100573.66;4965225;28;98806;-70
2023/04/29 02:26:04;;;;;;;10.95;8.60;;;;;;;16.57;63.26;100572.47;4967818;28;99749;-70
2023/04/29 02:28:32;;;;;;;15.90;9.27;;;;;;;16.76;62.93;100561.50;4965787;28;99154;-70
2023/04/29 02:30:58;;;;;;;13.55;9.40;;;;;;;16.60;63.54;100557.19;4966895;28;97005;-70
2023/04/29 02:33:24;;;;;;;15.32;9.60;;;;;;;16.55;63.95;100553.03;4967119;28;97174;-69
2023/04/29 02:35:51;;;;;;;14.25;10.02;;;;;;;16.69;63.48;100555.72;4967149;28;98415;-70
2023/04/29 02:38:17;;;;;;;15.90;9.38;;;;;;;16.56;64.37;100568.09;4966128;28;99621;-70
2023/04/29 02:40:44;;;;;;;16.05;10.30;;;;;;;16.74;63.67;100572.28;4967339;28;96999;-70
2023/04/29 02:43:11;;;;;;;13.50;9.40;;;;;;;16.59;64.18;100568.75;4965377;28;97429;-69
2023/04/29 02:45:39;;;;;;;16.50;10.23;;;;;;;16.48;64.70;100563.22;4964259;28;98931;-70
2023/04/29 02:48:07;;;;;;;17.17;11.15;;;;;;;16.48;64.90;100562.34;4965710;28;98748;-71
2023/04/29 02:50:33;;;;;;;14.95;10.40;;;;;;;16.42;65.15;100562.75;4962831;28;97173;-70
2023/04/29 02:52:59;;;;;;;15.73;11.02;;;;;;;16.58;64.97;100561.72;4966828;28;97184;-69
2023/04/29 02:55:26;;;;;;;12.63;9.50;;;;;;;16.50;64.86;100555.13;4968363;28;99403;-69
2023/04/29 02:57:53;;;;;;;15.02;10.73;;;;;;;16.45;65.26;100562.56;4963839;28;98898;-70
2023/04/29 03:00:20;;;;;;;14.35;10.13;;;;;;;16.48;65.16;100562.34;4969986;28;96851;-70
2023/04/29 03:02:48;;;;;;;14.93;10.80;;;;;;;16.54;64.80;100557.50;4969880;28;96932;-70
2023/04/29 03:05:14;;;;;;;14.27;11.48;;;;;;;16.59;64.76;100554.56;4974446;28;99003;-69
2023/04/29 03:07:40;;;;;;;17.77;12.35;;;;;;;16.63;65.12;100558.78;4973215;28;99359;-69
2023/04/29 03:10:08;;;;;;;14.68;11.27;;;;;;;16.48;65.46;100557.03;4967176;28;97150;-70
2023/04/29 03:12:35;;;;;;;18.80;11.98;;;;;;;16.62;65.01;100560.56;4965578;28;97051;-70
2023/04/29 03:15:01;;;;;;;15.68;11.70;;;;;;;16.41;65.69;100556.56;4963962;28;98955;-69
2023/04/29 03:17:27;;;;;;;15.40;12.23;;;;;;;16.45;65.87;100560.75;4968235;28;101897;-70
2023/04/29 03:19:55;;;;;;;16.23;11.90;;;;;;;16.45;65.72;100552.75;4966855;28;98881;-70
2023/04/29 03:22:22;;;;;;;14.30;12.13;;;;;;;16.57;65.54;100556.47;4964738;28;97150;-70
2023/04/29 03:24:48;;;;;;;15.18;12.10;;;;;;;16.44;66.10;100543.03;4971502;28;99132;-70
2023/04/29 03:27:14;;;;;;;19.10;12.65;;;;;;;16.43;66.40;100553.81;4968964;28;97506;-70
2023/04/29 03:29:41;;;;;;;18.10;13.55;;;;;;;16.47;66.31;100556.19;4969449;28;96916;-70
2023/04/29 03:32:07;;;;;;;17.67;13.20;;;;;;;16.62;65.79;100541.91;4969343;28;97080;-69
2023/04/29 03:34:33;;;;;;;18.63;14.13;;;;;;;16.61;65.54;100545.53;4969342;28;101412;-70
2023/04/29 03:37:01;;;;;;;18.90;13.57;;;;;;;16.57;65.85;100554.66;4965487;28;99134;-70
2023/04/29 03:39:31;;;;;;;18.75;14.70;;;;;;;16.65;65.62;100548.88;4965515;28;97301;-71
2023/04/29 03:41:58;;;;;;;20.83;13.85;;;;;;;16.38;66.89;100545.25;4967224;28;96797;-71
2023/04/29 03:44:24;;;;;;;22.55;14.75;;;;;;;16.70;65.66;100550.28;4966638;28;99045;-71
2023/04/29 03:46:50;;;;;;;19.75;14.77;;;;;;;16.98;64.97;100549.38;4969703;28;98731;-70
2023/04/29 03:49:17;;;;;;;22.30;15.25;;;;;;;16.77;66.15;100542.75;4964561;28;96859;-71
2023/04/29 03:51:45;;;;;;;23.27;14.98;;;;;;;16.99;64.65;100545.75;4971377;28;97052;-71
2023/04/29 03:54:12;;;;;;;22.52;15.13;;;;;;;16.92;65.30;100549.78;4965030;28;98930;-71
2023/04/29 03:56:39;;;;;;;25.80;15.88;;;;;;;16.81;65.80;100548.72;4971809;28;99354;-71
2023/04/29 03:59:06;;;;;;;23.58;16.05;;;;;;;16.79;66.18;100542.66;4974298;28;97287;-70
2023/04/29 04:01:33;;;;;;;21.92;16.40;;;;;;;16.90;65.80;100543.66;4969204;28;96927;-71
2023/04/29 04:03:59;;;;;;;24.05;16.70;;;;;;;16.78;66.29;100548.94;4969068;28;98866;-71
2023/04/29 04:06:35;;;;;;;22.30;16.33;;;;;;;16.64;67.16;100550.69;4967722;28;99034;-71
2023/04/29 04:09:01;;;;;;;23.80;17.17;;;;;;;16.57;67.84;100557.31;4965437;28;98841;-71
2023/04/29 04:11:29;;;;;;;26.20;17.65;;;;;;;16.82;66.68;100556.63;4968577;28;97690;-71
2023/04/29 04:13:56;;;;;;;25.38;16.80;;;;;;;16.87;66.52;100559.88;4966619;28;97783;-71
2023/04/29 04:16:22;;;;;;;23.90;17.38;;;;;;;16.71;67.44;100559.16;4967276;28;98887;-71
2023/04/29 04:18:48;;;;;;;21.48;17.10;;;;;;;17.07;66.08;100566.59;4966205;28;97148;-71
2023/04/29 04:21:15;;;;;;;21.83;16.73;;;;;;;16.93;66.48;100563.97;4968156;28;96861;-70
2023/04/29 04:23:42;;;;;;;25.17;17.77;;;;;;;16.82;66.74;100561.97;4975183;28;98066;-71
2023/04/29 04:26:09;;;;;;;29.65;18.48;;;;;;;16.85;67.01;100561.78;4965342;28;99247;-71
2023/04/29 04:28:37;;;;;;;26.20;18.83;;;;;;;17.02;66.69;100558.88;4967442;28;98835;-71
2023/04/29 04:31:04;;;;;;;25.38;17.58;;;;;;;17.13;66.14;100564.38;4966754;28;98426;-71
2023/04/29 04:33:31;;;;;;;26.42;17.73;;;;;;;16.80;67.41;100565.72;4975270;28;99165;-71
2023/04/29 04:35:57;;;;;;;25.35;18.55;;;;;;;16.99;66.87;100564.44;4963389;28;97616;-71
2023/04/29 04:38:25;;;;;;;25.00;17.83;;;;;;;17.03;67.04;100559.75;4969148;28;96939;-71
2023/04/29 04:40:51;;;;;;;31.05;18.58;;;;;;;17.13;66.52;100561.69;4967456;28;96885;-71
2023/04/29 04:43:17;;;;;;;25.83;17.90;;;;;;;16.91;67.08;100565.88;4961545;28;99215;-71
2023/04/29 04:45:45;;;;;;;25.15;17.63;;;;;;;16.81;67.89;100557.59;4967201;28;100603;-71
2023/04/29 04:48:12;;;;;;;26.90;18.95;;;;;;;16.95;67.39;100568.25;4966455;28;97292;-71
2023/04/29 04:50:38;;;;;;;26.15;19.27;;;;;;;16.95;67.24;100568.25;4968307;28;98398;-71
2023/04/29 04:53:05;;;;;;;27.48;18.52;;;;;;;17.01;67.47;100567.84;4967672;28;98964;-71
2023/04/29 04:55:32;;;;;;;27.73;17.83;;;;;;;17.14;66.87;100568.75;4969665;28;99454;-71
2023/04/29 04:57:59;;;;;;;27.60;19.67;;;;;;;17.18;67.15;100572.09;4961161;28;98797;-71
2023/04/29 05:00:25;;;;;;;29.48;19.83;;;;;;;16.97;68.30;100569.00;4966744;28;97937;-71
2023/04/29 05:02:53;;;;;;;28.17;20.20;;;;;;;16.92;68.40;100568.47;4968243;28;99085;-71
2023/04/29 05:05:20;;;;;;;28.40;20.08;;;;;;;17.04;68.23;100570.31;4966650;28;99191;-71
2023/04/29 05:07:46;;;;;;;31.67;20.83;;;;;;;17.09;68.22;100570.88;4965161;28;97001;-71
2023/04/29 05:10:12;;;;;;;28.02;19.40;;;;;;;17.12;68.20;100573.38;4965282;28;97061;-71
2023/04/29 05:12:39;;;;;;;29.70;19.75;;;;;;;17.00;68.68;100574.13;4968771;28;98908;-71
2023/04/29 05:15:06;;;;;;;27.70;20.33;;;;;;;16.93;69.13;100575.50;4969085;28;99434;-71
2023/04/29 05:17:35;;;;;;;27.73;19.77;;;;;;;17.08;68.79;100582.50;4964586;28;97737;-71
2023/04/29 05:20:04;;;;;;;28.33;20.42;;;;;;;16.79;69.69;100577.34;4967153;28;96955;-71
2023/04/29 05:22:31;;;;;;;27.95;19.98;;;;;;;16.93;69.42;100582.66;4968819;28;99455;-70
2023/04/29 05:25:02;;;;;;;27.63;19.08;;;;;;;16.99;69.37;100583.13;4966515;28;98769;-70
2023/04/29 05:27:29;;;;;;;27.60;19.90;;;;;;;17.05;69.51;100584.53;4966674;28;98969;-72
2023/04/29 05:29:55;;;;;;;27.10;19.92;;;;;;;17.02;69.38;100582.03;4966036;28;97369;-71
2023/04/29 05:32:22;;;;;;;28.10;20.58;;;;;;;17.08;69.38;100581.66;4967280;28;98942;-71
2023/04/29 05:34:53;;;;;;;28.42;19.98;;;;;;;17.09;69.51;100586.88;4967376;28;99387;-71
2023/04/29 05:37:21;;;;;;;25.75;19.52;;;;;;;17.08;69.79;100587.84;4966005;28;96814;-71
2023/04/29 05:39:48;;;;;;;26.23;19.48;;;;;;;17.20;69.49;100598.72;4967339;28;97226;-71
2023/04/29 05:42:14;;;;;;;29.48;20.10;;;;;;;17.10;70.10;100593.94;4961821;28;98984;-70
2023/04/29 05:44:44;;;;;;;27.92;19.90;;;;;;;17.05;70.15;100590.72;4967168;28;98936;-71
2023/04/29 05:47:10;;;;;;;28.17;20.20;;;;;;;16.93;70.80;100591.53;4958631;28;97108;-71
2023/04/29 05:49:36;;;;;;;26.80;19.33;;;;;;;16.91;71.17;100593.44;4965316;28;97371;-70
2023/04/29 05:52:05;;;;;;;26.42;19.27;;;;;;;16.71;72.08;100599.16;4965738;28;98856;-72
2023/04/29 05:54:34;;;;;;;26.23;18.13;;;;;;;16.90;71.77;100601.53;4964263;28;98474;-72
2023/04/29 05:57:01;;;;;;;28.83;20.02;;;;;;;16.85;71.91;100599.16;4965352;28;96880;-72
2023/04/29 05:59:28;;;;;;;25.27;19.13;;;;;;;16.76;72.46;100599.72;4961795;28;101012;-71
2023/04/29 06:01:55;;;;;;;27.05;20.20;;;;;;;16.74;72.80;100602.47;4957828;28;102718;-72
2023/04/29 06:04:21;;;;;;;29.55;19.90;;;;;;;16.77;72.55;100603.25;4961085;28;99185;-72
2023/04/29 06:06:48;;;;;;;30.40;20.40;;;;;;;16.88;72.31;100600.75;4969954;28;96829;-71
2023/04/29 06:09:15;;;;;;;28.02;19.40;;;;;;;16.91;72.27;100601.44;4963230;28;97071;-70
2023/04/29 06:11:43;;;;;;;27.92;19.83;;;;;;;17.04;71.80;100609.50;4962353;28;99253;-70
2023/04/29 06:14:10;;;;;;;26.75;19.00;;;;;;;17.02;71.82;100609.59;4963433;28;99110;-70
2023/04/29 06:16:37;;;;;;;29.08;19.33;;;;;;;17.21;71.22;100611.94;4966456;28;96900;-71
2023/04/29 06:19:03;;;;;;;32.13;19.70;;;;;;;17.34;70.67;100610.16;4957054;28;96839;-72
2023/04/29 06:21:30;;;;;;;25.48;18.73;;;;;;;17.21;71.26;100614.59;4968397;28;99150;-72
2023/04/29 06:23:57;;;;;;;27.05;19.05;;;;;;;17.13;71.30;100620.44;4963857;28;98954;-72
2023/04/29 06:26:23;;;;;;;27.63;18.33;;;;;;;17.03;71.49;100619.31;4962717;28;96786;-72
2023/04/29 06:28:53;;;;;;;26.88;18.58;;;;;;;17.17;71.48;100620.25;4964767;28;96920;-72
2023/04/29 06:31:19;;;;;;;27.65;18.52;;;;;;;17.31;71.02;100625.56;4961474;28;99352;-72
2023/04/29 06:33:46;;;;;;;28.92;19.95;;;;;;;17.46;70.23;100627.19;4964603;28;98933;-73
2023/04/29 06:36:13;;;;;;;27.88;18.05;;;;;;;17.36;70.49;100629.63;4961116;28;96863;-72
2023/04/29 06:38:39;;;;;;;27.90;18.55;;;;;;;17.67;69.29;100631.16;4959588;28;97886;-71
2023/04/29 06:41:06;;;;;;;31.10;19.77;;;;;;;17.81;68.90;100633.78;4956886;28;98174;-71
2023/04/29 06:43:32;;;;;;;28.27;19.17;;;;;;;17.70;68.54;100641.66;4966939;28;99046;-72
2023/04/29 06:46:00;;;;;;;26.42;18.20;;;;;;;17.75;68.75;100639.53;4962199;28;96907;-72
2023/04/29 06:48:27;;;;;;;28.08;19.25;;;;;;;17.77;68.59;100653.66;4956240;28;99902;-71
2023/04/29 06:50:55;;;;;;;29.90;18.58;;;;;;;17.82;68.49;100648.84;4962695;28;100213;-72
2023/04/29 06:53:22;;;;;;;28.05;18.20;;;;;;;17.72;68.45;100647.75;4963339;28;101779;-72
2023/04/29 06:55:49;;;;;;;23.23;16.50;;;;;;;17.84;67.91;100654.09;4960826;28;97487;-71
2023/04/29 06:58:16;;;;;;;24.00;15.25;;;;;;;17.86;67.15;100652.16;4962353;28;98956;-71
2023/04/29 07:00:45;;;;;;;22.50;15.38;;;;;;;17.73;67.85;100660.16;4958715;28;97847;-72
2023/04/29 07:03:13;;;;;;;20.63;15.68;;;;;;;17.87;67.33;100653.88;4959813;28;99131;-73
2023/04/29 07:05:41;;;;;;;22.48;15.00;;;;;;;17.82;67.61;100659.56;4957498;28;98616;-71
2023/04/29 07:08:09;;;;;;;23.50;15.48;;;;;;;17.51;68.25;100663.38;4957481;28;97411;-72
2023/04/29 07:10:36;;;;;;;23.63;16.80;;;;;;;17.85;67.12;100659.31;4959960;28;99793;-72
2023/04/29 07:13:02;;;;;;;27.90;16.55;;;;;;;17.95;66.64;100672.09;4961449;28;99072;-73
2023/04/29 07:15:30;;;;;;;26.42;16.17;;;;;;;17.70;67.37;100672.88;4959463;28;97159;-73
2023/04/29 07:17:57;;;;;;;25.83;16.90;;;;;;;17.89;66.84;100679.56;4960974;28;97614;-72
2023/04/29 07:20:24;;;;;;;29.70;18.13;;;;;;;17.73;66.90;100686.88;4960380;28;100108;-72
2023/04/29 07:22:51;;;;;;;29.85;17.73;;;;;;;17.76;65.79;100689.34;4967280;28;99092;-71
2023/04/29 07:25:18;;;;;;;29.38;16.77;;;;;;;17.73;65.55;100689.53;4963439;28;97485;-72
2023/04/29 07:27:44;;;;;;;29.45;17.58;;;;;;;17.82;65.92;100688.09;4961510;28;97588;-72
2023/04/29 07:30:11;;;;;;;33.42;19.17;;;;;;;17.85;64.91;100695.91;4964157;28;98559;-72
2023/04/29 07:32:37;;;;;;;32.42;18.63;;;;;;;17.51;65.98;100694.56;4964802;28;99025;-71
2023/04/29 07:35:04;;;;;;;30.92;17.98;;;;;;;17.71;65.29;100699.50;4962901;28;96824;-72
2023/04/29 07:37:32;;;;;;;35.63;20.23;;;;;;;17.65;65.13;100701.72;4963270;28;96896;-72
2023/04/29 07:39:59;;;;;;;27.42;17.67;;;;;;;17.73;65.15;100702.91;4973893;28;100116;-71
2023/04/29 07:42:26;;;;;;;23.92;16.48;;;;;;;17.61;65.25;100711.72;4960736;28;98878;-71
2023/04/29 07:44:52;;;;;;;28.27;16.73;;;;;;;17.90;64.62;100716.03;4960912;28;97131;-72
2023/04/29 07:47:18;;;;;;;26.02;17.63;;;;;;;17.92;64.43;100719.44;4965962;28;97536;-71
2023/04/29 07:49:45;;;;;;;22.83;16.50;;;;;;;17.89;65.05;100724.16;4962848;28;99120;-73
2023/04/29 07:52:11;;;;;;;22.98;15.60;;;;;;;17.76;65.59;100724.09;4959400;28;99204;-72
2023/04/29 07:54:39;;;;;;;21.98;16.00;;;;;;;18.09;64.31;100733.53;4959902;28;97423;-74
2023/04/29 07:57:06;;;;;;;21.02;15.00;;;;;;;18.04;64.05;100735.66;4960288;28;97949;-73
2023/04/29 07:59:32;;;;;;;20.77;14.15;;;;;;;18.01;63.90;100742.03;4963846;28;99059;-70
2023/04/29 08:01:59;;;;;;;17.73;13.35;;;;;;;17.91;63.88;100749.84;4963148;28;98697;-72
2023/04/29 08:04:25;;;;;;;21.90;13.13;;;;;;;17.79;64.15;100747.94;4968791;28;96928;-71
2023/04/29 08:06:52;;;;;;;15.25;11.98;;;;;;;17.75;64.00;100757.13;4963797;28;97423;-71
2023/04/29 08:09:18;;;;;;;17.33;11.38;;;;;;;17.67;63.68;100766.59;4966877;28;97767;-72
2023/04/29 08:11:46;;;;;;;15.65;12.32;;;;;;;17.33;64.18;100770.50;4963248;28;99811;-73
2023/04/29 08:14:13;;;;;;;13.15;10.50;;;;;;;17.41;64.07;100784.25;4967262;28;97583;-71
2023/04/29 08:16:39;;;;;;;13.13;9.88;;;;;;;17.12;64.15;100788.75;4956334;28;98107;-72
2023/04/29 08:19:05;;;;;;;15.70;10.85;;;;;;;17.44;63.50;100786.75;4955362;28;99626;-72
2023/04/29 08:21:33;;;;;;;15.45;10.18;;;;;;;17.37;63.37;100791.59;4966840;28;99181;-73
2023/04/29 08:23:59;;;;;;;15.63;10.55;;;;;;;17.28;63.38;100791.31;4957622;28;97351;-71
2023/04/29 08:26:26;;;;;;;13.40;10.77;;;;;;;17.45;63.19;100800.00;4951979;28;97639;-72
2023/04/29 08:28:54;;;;;;;14.07;11.27;;;;;;;17.35;63.32;100809.53;4966452;28;99652;-72
2023/04/29 08:31:21;;;;;;;17.77;11.68;;;;;;;17.41;63.58;100805.63;4966426;28;101272;-75
2023/04/29 08:33:49;;;;;;;15.60;11.30;;;;;;;17.45;63.16;100815.16;4964136;28;97034;-72
2023/04/29 08:36:15;;;;;;;16.85;12.00;;;;;;;17.60;62.50;100816.00;4967072;28;97734;-73
2023/04/29 08:38:42;;;;;;;19.95;11.50;;;;;;;17.45;62.53;100823.19;4965972;28;99598;-72
2023/04/29 08:41:08;;;;;;;15.57;11.00;;;;;;;17.37;62.83;100820.13;4967478;28;98824;-74
2023/04/29 08:43:36;;;;;;;16.65;12.20;;;;;;;17.56;62.72;100835.84;4966399;28;97471;-71
2023/04/29 08:46:04;;;;;;;20.05;12.68;;;;;;;17.68;62.49;100841.31;4964314;28;97318;-73
2023/04/29 08:48:32;;;;;;;14.50;10.50;;;;;;;17.54;62.39;100838.63;4969422;28;101526;-71
2023/04/29 08:51:02;;;;;;;13.25;9.90;;;;;;;17.53;62.64;100832.41;4967927;28;99151;-73
2023/04/29 08:53:29;;;;;;;14.50;10.95;;;;;;;17.56;62.40;100847.41;4967787;28;97207;-72
2023/04/29 08:56:00;;;;;;;13.50;10.77;;;;;;;17.48;62.25;100845.22;4966130;28;96926;-73
2023/04/29 08:58:29;;;;;;;15.10;10.88;;;;;;;17.69;62.20;100848.38;4962968;28;96836;-72
2023/04/29 09:00:57;;;;;;;16.95;12.13;;;;;;;17.30;62.91;100856.19;4969266;28;97594;-72
2023/04/29 09:03:30;;;;;;;17.58;11.88;;;;;;;17.16;63.55;100869.50;4964152;28;97467;-73
2023/04/29 09:06:00;;;;;;;17.35;12.70;;;;;;;17.20;63.31;100871.06;4968344;28;97085;-72
2023/04/29 09:08:27;;;;;;;16.85;12.38;;;;;;;17.47;62.55;100872.88;4958411;28;101148;-72
2023/04/29 09:10:54;;;;;;;18.00;13.15;;;;;;;17.04;63.54;100882.66;4957690;28;99493;-72
2023/04/29 09:13:25;;;;;;;17.05;11.90;;;;;;;17.24;62.76;100883.25;4958970;28;98760;-72
2023/04/29 09:15:51;;;;;;;19.63;13.48;;;;;;;17.29;62.76;100889.19;4959142;28;97697;-72
2023/04/29 09:18:44;;;;;;;24.08;13.40;;;;;;;17.46;62.11;100887.19;4965560;28;99378;-72
2023/04/29 09:21:15;;;;;;;22.10;13.88;;;;;;;17.36;62.19;100891.38;4969380;28;98855;-72
2023/04/29 09:23:41;;;;;;;22.10;14.73;;;;;;;17.14;62.49;100883.81;4968428;28;97503;-72
2023/04/29 09:26:08;;;;;;;22.33;15.57;;;;;;;17.08;62.99;100889.53;4967166;28;97570;-71
2023/04/29 09:28:34;;;;;;;25.25;15.93;;;;;;;16.99;63.09;100892.75;4964117;28;99144;-71
2023/04/29 09:31:05;;;;;;;27.08;17.13;;;;;;;16.99;63.01;100902.56;4968911;28;99246;-72
2023/04/29 09:33:32;;;;;;;28.30;17.27;;;;;;;16.97;63.39;100905.31;4968217;28;96923;-71
2023/04/29 09:35:59;;;;;;;27.25;18.67;;;;;;;17.01;63.04;100904.19;4975035;28;97327;-72
2023/04/29 09:38:26;;;;;;;25.73;16.85;;;;;;;17.02;63.58;100921.91;4963597;28;101228;-72
2023/04/29 09:40:55;;;;;;;30.17;19.35;;;;;;;16.99;63.10;100916.78;4958854;28;96965;-73
2023/04/29 09:43:22;;;;;;;35.35;20.50;;;;;;;16.76;63.23;100919.06;4959869;28;97606;-73
2023/04/29 09:45:49;;;;;;;35.97;21.73;;;;;;;16.67;63.49;100928.50;4965355;28;97694;-72
2023/04/29 09:48:16;;;;;;;35.53;21.92;;;;;;;16.55;63.37;100934.47;4965288;28;98878;-73
2023/04/29 09:50:43;;;;;;;37.28;22.63;;;;;;;16.88;62.51;100934.34;4968214;28;99590;-72
2023/04/29 09:53:11;;;;;;;36.88;22.27;;;;;;;16.92;62.22;100947.47;4963116;28;97128;-71
2023/04/29 09:55:59;;;;;;;44.80;24.08;;;;;;;16.88;62.27;100945.91;4959045;28;97359;-71
2023/04/29 09:58:29;;;;;;;45.90;25.80;;;;;;;16.91;61.73;100947.53;4968185;28;99279;-72
2023/04/29 10:00:56;;;;;;;50.92;27.48;;;;;;;16.85;61.83;100951.44;4966072;28;98778;-71
2023/04/29 10:03:23;;;;;;;49.22;28.75;;;;;;;16.87;61.84;100956.69;4964916;28;97197;-71
2023/04/29 10:05:49;;;;;;;52.25;29.65;;;;;;;16.93;61.13;100959.84;4963648;28;96923;-72
2023/04/29 10:08:18;;;;;;;53.38;30.10;;;;;;;17.06;60.69;100965.34;4966486;28;98712;-72
2023/04/29 10:10:46;;;;;;;57.13;31.63;;;;;;;16.91;60.94;100964.41;4967272;28;98893;-72
2023/04/29 10:13:12;;;;;;;55.47;32.40;;;;;;;17.12;60.81;100968.50;4963378;28;96836;-72
2023/04/29 10:15:49;;;;;;;55.65;33.00;;;;;;;16.87;61.24;100976.19;4966592;28;97254;-71
2023/04/29 10:18:20;;;;;;;54.97;31.90;;;;;;;17.09;60.79;100979.34;4970438;28;101908;-71
2023/04/29 10:20:48;;;;;;;52.75;31.45;;;;;;;16.99;60.97;100982.66;4959906;28;101208;-72
2023/04/29 10:23:17;;;;;;;54.15;31.70;;;;;;;17.31;59.98;100986.09;4957178;28;97527;-72
2023/04/29 10:25:46;;;;;;;59.55;31.92;;;;;;;17.23;60.13;100980.34;4965897;28;97264;-71
2023/04/29 10:28:16;;;;;;;56.95;31.98;;;;;;;17.14;59.88;100989.75;4964933;28;99190;-71
2023/04/29 10:30:44;;;;;;;60.78;32.58;;;;;;;17.21;60.05;100983.09;4967913;28;97805;-72
2023/04/29 10:33:11;;;;;;;52.58;31.48;;;;;;;17.24;59.60;100984.75;4963688;28;97020;-72
2023/04/29 10:35:38;;;;;;;54.80;30.63;;;;;;;17.12;60.58;100997.88;4966456;28;97860;-71
2023/04/29 10:38:10;;;;;;;45.75;28.75;;;;;;;17.33;58.74;100994.84;4972095;28;99172;-72
2023/04/29 10:40:45;;;;;;;43.15;29.27;;;;;;;17.31;58.73;100991.44;4967725;28;98731;-72
2023/04/29 10:43:12;;;;;;;44.50;26.88;;;;;;;17.68;57.82;101007.00;4969377;28;97254;-73
2023/04/29 10:45:39;;;;;;;44.47;26.52;;;;;;;17.32;57.85;100998.50;4964771;28;97265;-71
2023/04/29 10:48:13;;;;;;;39.53;24.90;;;;;;;17.38;58.12;101003.47;4965414;28;99694;-72
2023/04/29 10:51:03;;;;;;;43.47;26.30;;;;;;;17.22;58.50;101003.53;4960869;28;100319;-72
2023/04/29 10:53:29;;;;;;;40.72;26.02;;;;;;;17.27;58.38;101021.94;4969952;28;96958;-73
2023/04/29 10:56:03;;;;;;;39.22;25.70;;;;;;;17.35;58.27;101012.53;4961758;28;96817;-73
2023/04/29 10:58:47;;;;;;;39.03;24.83;;;;;;;17.42;58.13;101010.34;4968262;28;98831;-73
2023/04/29 11:01:15;;;;;;;36.15;22.23;;;;;;;17.82;57.01;101015.03;4966257;28;99305;-74
2023/04/29 11:03:47;;;;;;;32.45;21.25;;;;;;;17.96;56.05;101021.34;4970741;28;96886;-73
2023/04/29 11:06:14;;;;;;;36.38;24.77;;;;;;;18.40;54.81;101022.09;4962659;28;96969;-72
2023/04/29 11:08:41;;;;;;;30.15;20.10;;;;;;;18.20;54.00;101014.47;4963036;28;99104;-73
2023/04/29 11:11:10;;;;;;;28.70;21.08;;;;;;;18.49;54.37;101024.19;4965062;28;98908;-71
2023/04/29 11:13:39;;;;;;;32.28;20.92;;;;;;;18.25;54.71;101021.25;4961403;28;98679;-73
2023/04/29 11:16:07;;;;;;;32.67;20.95;;;;;;;18.13;54.77;101027.38;4972206;28;96802;-71